Time,TemperatureF,DewpointF,PressureIn,WindDirection,WindDirectionDegrees,WindSpeedMPH,WindSpeedGustMPH,Humidity,HourlyPrecipIn,Conditions,Clouds,dailyrainin,SolarRadiationWatts/m^2,SoftwareType,DateUTC
2013-02-23 00:21:00,22.0,20.0,-100.00,West,268,4.0,13.0,90,0.00,,,0.07,0.000000,,2013-02-23 08:21:00,
2013-02-23 00:31:00,22.0,20.0,-100.00,West,268,4.0,13.0,90,0.00,,,0.07,0.000000,,2013-02-23 08:31:00,
2013-02-23 00:41:00,22.0,20.0,-100.00,West,268,4.0,13.0,90,0.00,,,0.07,0.000000,,2013-02-23 08:41:00,
2013-02-23 00:52:00,22.0,20.0,-100.00,West,268,4.0,13.0,90,0.00,,,0.07,0.000000,,2013-02-23 08:52:00,
2013-02-23 01:11:00,21.0,18.0,-100.00,West,281,5.0,16.0,89,0.00,,,0.07,0.000000,,2013-02-23 09:11:00,
2013-02-23 01:21:00,21.0,18.0,-100.00,West,281,5.0,16.0,89,0.00,,,0.07,0.000000,,2013-02-23 09:21:00,
2013-02-23 01:31:00,21.0,18.0,-100.00,West,281,5.0,16.0,89,0.00,,,0.07,0.000000,,2013-02-23 09:31:00,
2013-02-23 01:41:00,21.0,18.0,-100.00,West,281,5.0,16.0,89,0.00,,,0.07,0.000000,,2013-02-23 09:41:00,
2013-02-23 01:51:00,21.0,18.0,-100.00,West,281,5.0,16.0,89,0.00,,,0.07,0.000000,,2013-02-23 09:51:00,
2013-02-23 02:21:00,19.0,16.0,-100.00,SSW,193,6.0,20.0,88,0.00,,,0.07,0.000000,,2013-02-23 10:21:00,
2013-02-23 02:31:00,19.0,16.0,-100.00,SSW,193,6.0,20.0,88,0.00,,,0.07,0.000000,,2013-02-23 10:31:00,
2013-02-23 02:41:00,19.0,16.0,-100.00,SSW,193,6.0,20.0,88,0.00,,,0.07,0.000000,,2013-02-23 10:41:00,
2013-02-23 02:51:00,19.0,16.0,-100.00,SSW,193,6.0,20.0,88,0.00,,,0.07,0.000000,,2013-02-23 10:51:00,
2013-02-23 03:21:00,20.0,17.0,-100.00,West,278,5.0,21.0,89,0.00,,,0.07,0.000000,,2013-02-23 11:21:00,
2013-02-23 03:32:00,20.0,17.0,-100.00,West,278,5.0,21.0,89,0.00,,,0.07,0.000000,,2013-02-23 11:32:00,
2013-02-23 03:41:00,20.0,17.0,-100.00,West,278,5.0,21.0,89,0.00,,,0.07,0.000000,,2013-02-23 11:41:00,
2013-02-23 03:52:00,20.0,17.0,-100.00,West,278,5.0,21.0,89,0.00,,,0.07,0.000000,,2013-02-23 11:52:00,
2013-02-23 04:21:00,19.0,16.0,-100.00,NNW,346,0.0,18.0,87,0.00,,,0.07,0.000000,,2013-02-23 12:21:00,
2013-02-23 04:32:00,19.0,16.0,-100.00,NNW,346,0.0,18.0,87,0.00,,,0.07,0.000000,,2013-02-23 12:32:00,
2013-02-23 04:42:00,19.0,16.0,-100.00,NNW,346,0.0,18.0,87,0.00,,,0.07,0.000000,,2013-02-23 12:42:00,
2013-02-23 04:52:00,19.0,16.0,-100.00,NNW,346,0.0,18.0,87,0.00,,,0.07,0.000000,,2013-02-23 12:52:00,
2013-02-23 05:22:00,20.0,17.0,-100.00,West,269,5.0,17.0,89,0.00,,,0.07,0.000000,,2013-02-23 13:22:00,
2013-02-23 05:32:00,20.0,17.0,-100.00,West,269,5.0,17.0,89,0.00,,,0.07,0.000000,,2013-02-23 13:32:00,
2013-02-23 05:42:00,20.0,17.0,-100.00,West,269,5.0,17.0,89,0.00,,,0.07,0.000000,,2013-02-23 13:42:00,
2013-02-23 05:51:00,20.0,17.0,-100.00,West,269,5.0,17.0,89,0.00,,,0.07,0.000000,,2013-02-23 13:51:00,
2013-02-23 06:21:00,20.0,17.0,-100.00,West,268,5.0,20.0,87,0.00,,,0.07,0.000000,,2013-02-23 14:21:00,
2013-02-23 06:32:00,20.0,17.0,-100.00,West,268,5.0,20.0,87,0.00,,,0.07,0.000000,,2013-02-23 14:32:00,
2013-02-23 06:41:00,20.0,17.0,-100.00,West,268,5.0,20.0,87,0.00,,,0.07,0.000000,,2013-02-23 14:41:00,
2013-02-23 06:52:00,20.0,17.0,-100.00,West,268,5.0,20.0,87,0.00,,,0.07,0.000000,,2013-02-23 14:52:00,
2013-02-23 07:21:00,20.0,17.0,-100.00,West,268,4.0,14.0,88,0.00,,,0.07,0.000000,,2013-02-23 15:21:00,
2013-02-23 07:31:00,20.0,17.0,-100.00,West,268,4.0,14.0,88,0.00,,,0.07,0.000000,,2013-02-23 15:31:00,
2013-02-23 07:41:00,20.0,17.0,-100.00,West,268,4.0,14.0,88,0.00,,,0.07,0.000000,,2013-02-23 15:41:00,
2013-02-23 07:51:00,20.0,17.0,-100.00,West,268,4.0,14.0,88,0.00,,,0.07,0.000000,,2013-02-23 15:51:00,
2013-02-23 08:21:00,21.0,18.0,-100.00,West,273,0.0,12.0,89,0.00,,,-99.99,1.000000,,2013-02-23 16:21:00,
2013-02-23 08:31:00,21.0,18.0,-100.00,West,273,0.0,12.0,89,0.00,,,-99.99,1.000000,,2013-02-23 16:31:00,
2013-02-23 08:42:00,21.0,18.0,-100.00,West,273,0.0,12.0,89,0.00,,,-99.99,1.000000,,2013-02-23 16:42:00,
2013-02-23 08:51:00,21.0,18.0,-100.00,West,273,0.0,12.0,89,0.00,,,-99.99,1.000000,,2013-02-23 16:51:00,
2013-02-23 09:21:00,25.0,22.0,-100.00,SE,130,0.0,6.0,87,0.00,,,0.07,9.000000,,2013-02-23 17:21:00,
2013-02-23 09:31:00,25.0,22.0,-100.00,SE,130,0.0,6.0,87,0.00,,,0.07,9.000000,,2013-02-23 17:31:00,
2013-02-23 09:41:00,25.0,22.0,-100.00,SE,130,0.0,6.0,87,0.00,,,0.07,9.000000,,2013-02-23 17:41:00,
2013-02-23 09:52:00,25.0,22.0,-100.00,SE,130,0.0,6.0,87,0.00,,,0.07,9.000000,,2013-02-23 17:52:00,
2013-02-23 10:21:00,28.0,24.0,-100.00,ESE,105,1.0,8.0,86,0.00,,,0.07,13.000000,,2013-02-23 18:21:00,
2013-02-23 10:31:00,28.0,24.0,-100.00,ESE,105,1.0,8.0,86,0.00,,,0.07,13.000000,,2013-02-23 18:31:00,
2013-02-23 10:41:00,28.0,24.0,-100.00,ESE,105,1.0,8.0,86,0.00,,,0.07,13.000000,,2013-02-23 18:41:00,
2013-02-23 10:51:00,28.0,24.0,-100.00,ESE,105,1.0,8.0,86,0.00,,,0.07,13.000000,,2013-02-23 18:51:00,
2013-02-23 11:21:00,30.0,25.0,-100.00,South,181,0.0,6.0,82,0.00,,,0.07,22.000000,,2013-02-23 19:21:00,
2013-02-23 11:32:00,30.0,25.0,-100.00,South,181,0.0,6.0,82,0.00,,,0.07,22.000000,,2013-02-23 19:32:00,
2013-02-23 11:41:00,30.0,25.0,-100.00,South,181,0.0,6.0,82,0.00,,,0.07,22.000000,,2013-02-23 19:41:00,
2013-02-23 11:51:00,30.0,25.0,-100.00,South,181,0.0,6.0,82,0.00,,,0.07,22.000000,,2013-02-23 19:51:00,
2013-02-23 12:21:00,32.0,27.0,-100.00,NW,321,2.0,12.0,81,0.00,,,0.07,22.000000,,2013-02-23 20:21:00,
2013-02-23 12:31:00,32.0,27.0,-100.00,NW,321,2.0,12.0,81,0.00,,,0.07,22.000000,,2013-02-23 20:31:00,
2013-02-23 12:41:00,32.0,27.0,-100.00,NW,321,2.0,12.0,81,0.00,,,0.07,22.000000,,2013-02-23 20:41:00,
2013-02-23 12:52:00,32.0,27.0,-100.00,NW,321,2.0,12.0,81,0.00,,,0.07,22.000000,,2013-02-23 20:52:00,
2013-02-23 13:22:00,32.0,25.0,-100.00,NNW,345,1.0,16.0,75,0.00,,,0.00,36.000000,,2013-02-23 21:22:00,
2013-02-23 13:31:00,32.0,25.0,-100.00,NNW,345,1.0,16.0,75,0.00,,,0.00,36.000000,,2013-02-23 21:31:00,
2013-02-23 13:41:00,32.0,25.0,-100.00,NNW,345,1.0,16.0,75,0.00,,,0.00,36.000000,,2013-02-23 21:41:00,
2013-02-23 13:51:00,32.0,25.0,-100.00,NNW,345,1.0,16.0,75,0.00,,,0.00,36.000000,,2013-02-23 21:51:00,
2013-02-23 14:21:00,30.0,23.0,-100.00,SW,232,0.0,8.0,74,0.00,,,0.00,24.000000,,2013-02-23 22:21:00,
2013-02-23 14:31:00,30.0,23.0,-100.00,SW,232,0.0,8.0,74,0.00,,,0.00,24.000000,,2013-02-23 22:31:00,
2013-02-23 14:41:00,30.0,23.0,-100.00,SW,232,0.0,8.0,74,0.00,,,0.00,24.000000,,2013-02-23 22:41:00,
2013-02-23 14:51:00,30.0,23.0,-100.00,SW,232,0.0,8.0,74,0.00,,,0.00,24.000000,,2013-02-23 22:51:00,
2013-02-23 15:21:00,29.0,21.0,-100.00,East,89,2.0,12.0,72,0.00,,,0.00,18.000000,,2013-02-23 23:21:00,
2013-02-23 15:31:00,29.0,21.0,-100.00,East,89,2.0,12.0,72,0.00,,,0.00,18.000000,,2013-02-23 23:31:00,
2013-02-23 15:41:00,29.0,21.0,-100.00,East,89,2.0,12.0,72,0.00,,,0.00,18.000000,,2013-02-23 23:41:00,
2013-02-23 15:52:00,29.0,21.0,-100.00,East,89,2.0,12.0,72,0.00,,,0.00,18.000000,,2013-02-23 23:52:00,
2013-02-23 16:22:00,28.0,21.0,-100.00,ESE,105,1.0,9.0,74,0.00,,,0.00,12.000000,,2013-02-24 00:22:00,
2013-02-23 16:32:00,28.0,21.0,-100.00,ESE,105,1.0,9.0,74,0.00,,,0.00,12.000000,,2013-02-24 00:32:00,
2013-02-23 16:42:00,28.0,21.0,-100.00,ESE,105,1.0,9.0,74,0.00,,,0.00,12.000000,,2013-02-24 00:42:00,
2013-02-23 16:52:00,28.0,21.0,-100.00,ESE,105,1.0,9.0,74,0.00,,,0.00,12.000000,,2013-02-24 00:52:00,
2013-02-23 17:22:00,25.0,19.0,-100.00,SSW,212,3.0,16.0,77,0.00,,,0.00,6.000000,,2013-02-24 01:22:00,
2013-02-23 17:31:00,25.0,19.0,-100.00,SSW,212,3.0,16.0,77,0.00,,,0.00,6.000000,,2013-02-24 01:31:00,
2013-02-23 17:41:00,25.0,19.0,-100.00,SSW,212,3.0,16.0,77,0.00,,,0.00,6.000000,,2013-02-24 01:41:00,
2013-02-23 17:51:00,25.0,19.0,-100.00,SSW,212,3.0,16.0,77,0.00,,,0.00,6.000000,,2013-02-24 01:51:00,
2013-02-23 18:21:00,22.0,16.0,-100.00,NW,321,1.0,13.0,78,0.00,,,0.00,1.000000,,2013-02-24 02:21:00,
2013-02-23 18:32:00,22.0,16.0,-100.00,NW,321,1.0,13.0,78,0.00,,,0.00,1.000000,,2013-02-24 02:32:00,
2013-02-23 18:41:00,22.0,16.0,-100.00,NW,321,1.0,13.0,78,0.00,,,0.00,1.000000,,2013-02-24 02:41:00,
2013-02-23 18:52:00,22.0,16.0,-100.00,NW,321,1.0,13.0,78,0.00,,,0.00,1.000000,,2013-02-24 02:52:00,
2013-02-23 19:21:00,18.0,14.0,-100.00,WNW,295,0.0,11.0,85,0.00,,,0.00,0.000000,,2013-02-24 03:21:00,
2013-02-23 19:31:00,18.0,14.0,-100.00,WNW,295,0.0,11.0,85,0.00,,,0.00,0.000000,,2013-02-24 03:31:00,
2013-02-23 19:42:00,18.0,14.0,-100.00,WNW,295,0.0,11.0,85,0.00,,,0.00,0.000000,,2013-02-24 03:42:00,
2013-02-23 19:52:00,18.0,14.0,-100.00,WNW,295,0.0,11.0,85,0.00,,,0.00,0.000000,,2013-02-24 03:52:00,
2013-02-23 20:21:00,14.0,11.0,-100.00,WNW,288,0.0,0.0,88,0.00,,,0.00,0.000000,,2013-02-24 04:21:00,
2013-02-23 20:41:00,14.0,11.0,-100.00,WNW,288,0.0,0.0,88,0.00,,,0.00,0.000000,,2013-02-24 04:41:00,
2013-02-23 20:51:00,14.0,11.0,-100.00,WNW,288,0.0,0.0,88,0.00,,,0.00,0.000000,,2013-02-24 04:51:00,
2013-02-23 21:21:00,13.0,10.0,-100.00,West,281,0.0,0.0,88,-99.99,,,0.00,0.000000,,2013-02-24 05:21:00,
2013-02-23 21:42:00,13.0,10.0,-100.00,West,281,0.0,0.0,88,-99.99,,,0.00,0.000000,,2013-02-24 05:42:00,
2013-02-23 21:52:00,13.0,10.0,-100.00,West,281,0.0,0.0,88,-99.99,,,0.00,0.000000,,2013-02-24 05:52:00,
2013-02-23 22:21:00,10.0,7.0,-100.00,West,264,0.0,4.0,87,0.00,,,0.00,0.000000,,2013-02-24 06:21:00,
2013-02-23 23:41:00,10.0,7.0,-100.00,WNW,284,0.0,0.0,87,0.00,,,0.00,0.000000,,2013-02-24 07:41:00,
2013-02-23 23:51:00,10.0,7.0,-100.00,WNW,284,0.0,0.0,87,0.00,,,0.00,0.000000,,2013-02-24 07:51:00,